Rumney, New Hampshire
Current Conditions -  °F | °C
As of 11:55 PM on Sunday 21 Dec 2014 (Local Time) from K1P1 Reporting Station
Overcast Overcast  
Wind Chill: -2°   Ceiling: 2600
Heat Index: -2°   Visibility: 10mi
Dew Point: -2°   Wind: 0mph
Humidity: 100%   Direction: NA
Pressure: 30.36"   Gusts: NA
Location:  43.81°N, 71.81°W
Report Text: K1P1 220455Z AUTO 00000KT 10SM OVC026 M02/M02 A3036 RMK AO2 T10201020
Loading
Personal Weather Stations






























Interactive Weather Map New forecast layout! Learn more

10-Day Weather Forecast

Advertisements
Track Severe Weather on mobile